Time;durP1;ratioP1;P1;durP2;ratioP2;P2;SDS_P1;SDS_P2;PMS_P1;PMS_P2;Temp;Humidity;BMP_temperature;BMP_pressure;BME280_temperature;BME280_humidity;BME280_pressure;Samples;Min_cycle;Max_cycle;Signal;HPM_P1;HPM_P2
2022/08/14 00:00:22;;;;;;;5.77;5.30;;;22.10;99.90;;;;;;5089262;28;20822;-51
2022/08/14 00:02:55;;;;;;;5.40;5.10;;;22.10;99.90;;;;;;5088624;28;20590;-51
2022/08/14 00:05:26;;;;;;;6.30;5.50;;;22.10;99.90;;;;;;5088839;28;20628;-50
2022/08/14 00:07:57;;;;;;;6.23;5.60;;;22.00;99.90;;;;;;5096992;28;20470;-49
2022/08/14 00:10:27;;;;;;;12.57;6.07;;;22.00;99.90;;;;;;5092403;28;20462;-50
2022/08/14 00:12:58;;;;;;;6.93;5.20;;;22.00;99.90;;;;;;5106428;28;20187;-51
2022/08/14 00:15:34;;;;;;;5.57;5.27;;;22.00;99.90;;;;;;5091651;28;20575;-51
2022/08/14 00:18:07;;;;;;;8.53;6.10;;;22.00;99.90;;;;;;5095190;28;20718;-51
2022/08/14 00:20:40;;;;;;;5.97;5.37;;;22.00;99.90;;;;;;5093806;29;20447;-50
2022/08/14 00:23:13;;;;;;;5.70;5.30;;;22.00;99.90;;;;;;5091481;29;20455;-50
2022/08/14 00:25:47;;;;;;;6.00;5.50;;;22.00;99.90;;;;;;5106753;28;20465;-49
2022/08/14 00:28:20;;;;;;;7.10;6.23;;;21.90;99.90;;;;;;5092611;28;20493;-50
2022/08/14 00:30:56;;;;;;;6.70;5.70;;;21.90;99.90;;;;;;5093730;29;20443;-51
2022/08/14 00:33:28;;;;;;;9.37;6.23;;;21.90;99.90;;;;;;5092558;28;20454;-50
2022/08/14 00:35:58;;;;;;;5.20;4.90;;;21.90;99.90;;;;;;5097467;28;20895;-49
2022/08/14 00:38:29;;;;;;;11.60;5.73;;;21.80;99.90;;;;;;5101917;28;20482;-52
2022/08/14 00:41:03;;;;;;;7.23;6.17;;;21.80;99.90;;;;;;5111954;28;20290;-48
2022/08/14 00:43:37;;;;;;;5.80;5.40;;;21.80;99.90;;;;;;5117891;28;20802;-50
2022/08/14 00:46:12;;;;;;;9.10;5.90;;;21.80;99.90;;;;;;5101171;28;20879;-51
2022/08/14 00:48:43;;;;;;;5.73;5.33;;;21.80;99.90;;;;;;5097968;29;20518;-50
2022/08/14 00:51:14;;;;;;;6.70;6.17;;;21.80;99.90;;;;;;5102200;28;20533;-50
2022/08/14 00:53:46;;;;;;;6.43;5.50;;;21.80;99.90;;;;;;5110236;28;20225;-50
2022/08/14 00:56:17;;;;;;;9.60;5.90;;;21.80;99.90;;;;;;5117962;28;20191;-51
2022/08/14 00:58:48;;;;;;;6.77;6.10;;;21.80;99.90;;;;;;5106650;29;20430;-50
2022/08/14 01:01:22;;;;;;;8.70;6.77;;;21.80;99.90;;;;;;5102195;28;20439;-51
2022/08/14 01:03:52;;;;;;;6.77;6.07;;;21.80;99.90;;;;;;5103705;28;20643;-51
2022/08/14 01:06:25;;;;;;;6.60;6.00;;;21.80;99.90;;;;;;5223645;23;20524;-46
2022/08/14 01:08:55;;;;;;;6.57;5.87;;;21.70;99.90;;;;;;5220527;28;20417;-47
2022/08/14 01:11:27;;;;;;;6.13;5.73;;;21.70;99.90;;;;;;5239774;28;20430;-47
2022/08/14 01:14:00;;;;;;;8.63;5.67;;;21.70;99.90;;;;;;5227407;28;20186;-47
2022/08/14 01:16:30;;;;;;;8.97;6.70;;;21.70;99.90;;;;;;5222978;28;20488;-47
2022/08/14 01:21:50;;;;;;;7.43;6.03;;;21.70;99.90;;;;;;5218512;28;20177;-46
2022/08/14 01:24:21;;;;;;;6.37;5.70;;;21.80;99.90;;;;;;5241128;28;20441;-47
2022/08/14 01:26:52;;;;;;;8.13;5.40;;;21.80;99.90;;;;;;5217436;28;20281;-46
2022/08/14 01:29:23;;;;;;;6.10;5.60;;;21.80;99.90;;;;;;5220825;28;20536;-46
2022/08/14 01:31:53;;;;;;;7.73;6.70;;;21.80;99.90;;;;;;5225409;28;21487;-48
2022/08/14 01:34:25;;;;;;;9.33;6.60;;;21.90;99.90;;;;;;5224994;28;20199;-46
2022/08/14 01:36:55;;;;;;;7.43;6.63;;;21.90;99.90;;;;;;5221791;28;20522;-46
2022/08/14 01:39:26;;;;;;;8.27;6.30;;;21.90;99.90;;;;;;5217022;28;20434;-47
2022/08/14 01:41:59;;;;;;;6.27;5.67;;;21.90;99.90;;;;;;5219359;28;20185;-47
2022/08/14 01:44:30;;;;;;;7.20;6.50;;;22.00;99.90;;;;;;5219169;28;20222;-47
2022/08/14 01:47:11;;;;;;;5.90;5.40;;;22.00;99.90;;;;;;5219624;28;20472;-47
2022/08/14 01:49:41;;;;;;;6.73;5.83;;;22.00;99.90;;;;;;5225508;28;20182;-49
2022/08/14 01:52:12;;;;;;;10.97;5.83;;;22.00;99.90;;;;;;5225176;28;20497;-46
2022/08/14 01:54:43;;;;;;;6.83;6.07;;;22.00;99.90;;;;;;5227312;28;20195;-45
2022/08/14 01:57:14;;;;;;;6.87;6.10;;;21.90;99.90;;;;;;5217967;28;20806;-48
2022/08/14 01:59:44;;;;;;;6.20;5.77;;;22.00;99.90;;;;;;5238771;28;20186;-46
2022/08/14 02:02:16;;;;;;;5.97;5.47;;;21.90;99.90;;;;;;5239732;28;20232;-47
2022/08/14 02:04:46;;;;;;;6.23;5.83;;;21.90;99.90;;;;;;5221276;28;20275;-47
2022/08/14 02:07:18;;;;;;;9.23;6.20;;;21.90;99.90;;;;;;5221708;28;20453;-48
2022/08/14 02:09:48;;;;;;;6.50;5.63;;;21.90;99.90;;;;;;5216481;28;20206;-47
2022/08/14 02:12:23;;;;;;;6.30;5.80;;;21.90;99.90;;;;;;5222349;28;20825;-47
2022/08/14 02:14:54;;;;;;;6.53;5.87;;;21.90;99.90;;;;;;5217677;28;20201;-47
2022/08/14 02:17:25;;;;;;;10.10;6.77;;;21.90;99.90;;;;;;5217770;28;20429;-48
2022/08/14 02:19:56;;;;;;;10.23;6.93;;;21.90;99.90;;;;;;5216415;28;20186;-47
2022/08/14 02:22:27;;;;;;;14.23;6.70;;;21.90;99.90;;;;;;5199685;28;20429;-49
2022/08/14 02:24:57;;;;;;;6.77;6.10;;;21.90;99.90;;;;;;5225715;28;20198;-48
2022/08/14 02:27:29;;;;;;;11.90;6.10;;;21.90;99.90;;;;;;5224082;28;20206;-47
2022/08/14 02:29:59;;;;;;;10.70;6.20;;;21.90;99.90;;;;;;5221818;28;20171;-47
2022/08/14 02:32:33;;;;;;;10.10;6.87;;;21.90;99.90;;;;;;5221346;28;21076;-47
2022/08/14 02:35:17;;;;;;;10.57;6.83;;;21.80;99.90;;;;;;5235726;28;20236;-46
2022/08/14 02:37:48;;;;;;;10.50;6.63;;;21.80;99.90;;;;;;5223385;28;20433;-48
2022/08/14 02:40:20;;;;;;;6.20;5.70;;;21.80;99.90;;;;;;5212375;28;20438;-47
2022/08/14 02:42:51;;;;;;;12.63;6.70;;;21.90;99.90;;;;;;5208302;28;20494;-48
2022/08/14 02:45:22;;;;;;;7.80;6.67;;;21.90;99.90;;;;;;5222967;28;20446;-48
2022/08/14 02:47:53;;;;;;;8.63;7.03;;;21.80;99.90;;;;;;5235212;28;20681;-48
2022/08/14 02:50:24;;;;;;;7.87;6.97;;;21.80;99.90;;;;;;5223098;28;20532;-48
2022/08/14 02:52:54;;;;;;;7.97;7.23;;;21.80;99.90;;;;;;5218153;28;20505;-49
2022/08/14 02:55:25;;;;;;;7.57;6.83;;;21.80;99.90;;;;;;5218579;28;20200;-47
2022/08/14 02:57:56;;;;;;;10.43;6.70;;;21.80;99.90;;;;;;5223362;28;20186;-48
2022/08/14 03:00:27;;;;;;;9.07;7.10;;;21.80;99.90;;;;;;5217217;28;20209;-47
2022/08/14 03:02:57;;;;;;;8.03;7.30;;;21.80;99.90;;;;;;5197991;28;20440;-47
2022/08/14 03:05:30;;;;;;;6.67;6.13;;;21.80;99.90;;;;;;5229114;28;20246;-48
2022/08/14 03:08:06;;;;;;;8.20;7.40;;;21.80;99.90;;;;;;5220603;28;20215;-49
2022/08/14 03:10:37;;;;;;;7.73;7.03;;;21.80;99.90;;;;;;5238666;28;20483;-49
2022/08/14 03:13:09;;;;;;;10.07;6.97;;;21.70;99.90;;;;;;5223537;28;21002;-48
2022/08/14 03:15:46;;;;;;;8.30;7.00;;;21.70;99.90;;;;;;5220366;28;20456;-49
2022/08/14 03:18:17;;;;;;;9.60;7.53;;;21.70;99.90;;;;;;5213407;28;20441;-49
2022/08/14 03:20:50;;;;;;;11.73;7.17;;;21.70;99.90;;;;;;5214728;28;20530;-48
2022/08/14 03:23:21;;;;;;;7.60;7.00;;;21.70;99.90;;;;;;5218160;28;20225;-48
2022/08/14 03:25:54;;;;;;;7.50;6.73;;;21.70;99.90;;;;;;5221511;28;20457;-48
2022/08/14 03:28:28;;;;;;;8.83;6.87;;;21.70;99.90;;;;;;5218852;28;20634;-48
2022/08/14 03:30:59;;;;;;;8.10;7.27;;;21.60;99.90;;;;;;5217563;28;20891;-47
2022/08/14 03:33:30;;;;;;;7.07;6.40;;;21.60;99.90;;;;;;5236960;28;20835;-48
2022/08/14 03:36:00;;;;;;;8.83;6.93;;;21.60;99.90;;;;;;5217259;28;20443;-48
2022/08/14 03:38:31;;;;;;;9.90;7.07;;;21.50;99.90;;;;;;5216250;28;20562;-49
2022/08/14 03:41:02;;;;;;;11.50;6.80;;;21.50;99.90;;;;;;5212520;28;20203;-47
2022/08/14 03:43:32;;;;;;;8.10;7.30;;;21.50;99.90;;;;;;5218089;28;20188;-47
2022/08/14 03:46:03;;;;;;;8.10;7.30;;;21.50;99.90;;;;;;5219810;28;20203;-47
2022/08/14 03:48:33;;;;;;;7.67;7.03;;;21.50;99.90;;;;;;5228606;28;20213;-48
2022/08/14 03:51:07;;;;;;;8.33;7.53;;;21.50;99.90;;;;;;5242635;28;20227;-48
2022/08/14 03:53:43;;;;;;;8.70;6.90;;;21.50;99.90;;;;;;5227339;28;20190;-48
2022/08/14 03:56:15;;;;;;;8.93;7.90;;;21.50;99.90;;;;;;5222853;28;20446;-48
2022/08/14 03:58:54;;;;;;;7.83;7.03;;;21.50;99.90;;;;;;5225376;28;20494;-49
2022/08/14 04:01:25;;;;;;;9.40;7.80;;;21.40;99.90;;;;;;5225290;28;20436;-49
2022/08/14 04:03:58;;;;;;;8.20;7.40;;;21.40;99.90;;;;;;5224669;28;20449;-49
2022/08/14 04:06:28;;;;;;;7.93;7.23;;;21.40;99.90;;;;;;5225285;28;20583;-49
2022/08/14 04:08:59;;;;;;;9.07;7.40;;;21.40;99.90;;;;;;5227880;28;20528;-49
2022/08/14 04:11:30;;;;;;;7.63;6.77;;;21.40;99.90;;;;;;5225515;28;20171;-47
2022/08/14 04:14:01;;;;;;;15.90;7.40;;;21.40;99.90;;;;;;5223549;28;20197;-49
2022/08/14 04:16:31;;;;;;;7.27;6.77;;;21.40;99.90;;;;;;5216155;28;20602;-50
2022/08/14 04:19:03;;;;;;;7.33;6.57;;;21.50;99.90;;;;;;5226775;28;20440;-49
2022/08/14 04:21:34;;;;;;;7.17;6.57;;;21.50;99.90;;;;;;5226497;28;20274;-49
2022/08/14 04:24:04;;;;;;;8.90;7.30;;;21.60;99.90;;;;;;5220401;28;20529;-49
2022/08/14 04:26:35;;;;;;;8.23;7.50;;;21.60;99.90;;;;;;5220491;28;20199;-49
2022/08/14 04:29:08;;;;;;;7.40;6.60;;;21.60;99.90;;;;;;5220419;28;20176;-49
2022/08/14 04:31:39;;;;;;;8.20;6.90;;;21.60;99.90;;;;;;5218262;28;20182;-50
2022/08/14 04:34:09;;;;;;;8.37;7.60;;;21.70;99.90;;;;;;5224135;28;20845;-50
2022/08/14 04:45:13;;;;;;;8.20;7.40;;;21.70;99.90;;;;;;5225078;28;20964;-48
2022/08/14 04:50:34;;;;;;;9.83;8.00;;;21.80;99.90;;;;;;5215077;28;20766;-49
2022/08/14 04:53:04;;;;;;;8.80;7.93;;;21.80;99.90;;;;;;5223373;28;20437;-49
2022/08/14 04:55:35;;;;;;;9.33;6.60;;;21.90;99.90;;;;;;5221611;28;20506;-48
2022/08/14 04:58:06;;;;;;;10.60;7.30;;;22.00;99.90;;;;;;5224668;28;20190;-47
2022/08/14 05:00:38;;;;;;;8.07;7.37;;;22.00;99.90;;;;;;5233514;28;20656;-48
2022/08/14 05:03:09;;;;;;;11.20;8.07;;;22.00;99.90;;;;;;5214030;28;20187;-48
2022/08/14 05:05:40;;;;;;;10.20;7.83;;;22.10;99.90;;;;;;5220210;28;20480;-49
2022/08/14 05:08:11;;;;;;;9.03;8.00;;;22.30;99.90;;;;;;5226378;28;20282;-48
2022/08/14 05:10:45;;;;;;;10.70;7.43;;;22.50;99.90;;;;;;5222197;28;20696;-50
2022/08/14 05:13:16;;;;;;;9.77;7.83;;;22.70;99.90;;;;;;5232023;28;20179;-49
2022/08/14 05:15:48;;;;;;;6.87;6.37;;;22.90;99.90;;;;;;5225044;28;20488;-49
2022/08/14 05:18:21;;;;;;;8.07;7.30;;;23.30;99.90;;;;;;5222332;28;20179;-49
2022/08/14 05:20:54;;;;;;;7.70;7.03;;;23.60;99.90;;;;;;5232645;28;20457;-49
2022/08/14 05:23:29;;;;;;;8.17;6.53;;;23.80;99.90;;;;;;5222972;28;20469;-49
2022/08/14 05:26:01;;;;;;;9.17;6.50;;;24.10;99.90;;;;;;5221682;28;20462;-49
2022/08/14 05:28:34;;;;;;;6.80;6.27;;;24.60;99.90;;;;;;5226156;28;20496;-49
2022/08/14 05:31:05;;;;;;;7.60;6.20;;;25.40;99.90;;;;;;5217471;28;20438;-49
2022/08/14 05:33:37;;;;;;;6.30;5.70;;;26.80;95.80;;;;;;5215039;28;20425;-48
2022/08/14 05:36:10;;;;;;;10.33;5.67;;;28.60;88.20;;;;;;5218735;28;20474;-50
2022/08/14 05:38:43;;;;;;;6.17;5.50;;;29.60;75.00;;;;;;5219529;28;20446;-49
2022/08/14 05:41:17;;;;;;;6.10;5.60;;;30.70;68.70;;;;;;5220947;28;20487;-49
2022/08/14 05:43:49;;;;;;;8.27;6.30;;;32.10;58.90;;;;;;5222368;28;21300;-48
2022/08/14 05:46:23;;;;;;;6.73;6.17;;;33.10;53.50;;;;;;5222153;28;20564;-50
2022/08/14 05:48:56;;;;;;;12.30;5.50;;;32.90;52.50;;;;;;5221001;28;20443;-50
2022/08/14 05:51:27;;;;;;;6.60;6.00;;;33.10;51.70;;;;;;5219952;28;20436;-50
2022/08/14 05:53:58;;;;;;;6.40;5.53;;;33.30;49.90;;;;;;5220868;28;20582;-50
2022/08/14 05:56:28;;;;;;;6.70;5.60;;;33.40;49.70;;;;;;5218970;28;20486;-49
2022/08/14 05:58:59;;;;;;;9.20;5.23;;;33.10;50.10;;;;;;5220811;28;20174;-50
2022/08/14 06:01:30;;;;;;;6.80;6.00;;;33.50;48.90;;;;;;5224639;28;20208;-49
2022/08/14 06:04:01;;;;;;;17.23;5.33;;;34.00;47.70;;;;;;5221575;28;20286;-50
2022/08/14 06:06:35;;;;;;;5.53;5.23;;;34.70;47.10;;;;;;5227206;28;20210;-49
2022/08/14 06:09:09;;;;;;;6.40;5.37;;;35.40;45.10;;;;;;5225873;28;20569;-50
2022/08/14 06:11:40;;;;;;;4.63;4.20;;;35.70;44.60;;;;;;5226678;28;20213;-51
2022/08/14 06:14:11;;;;;;;4.88;4.47;;;36.70;43.20;;;;;;5207001;28;20206;-50
2022/08/14 06:16:43;;;;;;;6.47;5.47;;;37.70;40.50;;;;;;5212736;28;20256;-50
2022/08/14 06:19:14;;;;;;;4.85;4.55;;;37.60;39.40;;;;;;5222527;28;20175;-49
2022/08/14 06:21:45;;;;;;;5.53;5.03;;;37.50;39.50;;;;;;5219460;28;20193;-50
2022/08/14 06:24:15;;;;;;;5.63;5.22;;;37.20;39.20;;;;;;5221719;28;20191;-50
2022/08/14 06:26:47;;;;;;;6.53;5.85;;;37.60;38.80;;;;;;5225838;28;20199;-51
2022/08/14 06:29:17;;;;;;;5.53;5.05;;;37.30;38.70;;;;;;5224830;28;20263;-48
2022/08/14 06:31:48;;;;;;;5.95;5.45;;;37.30;38.80;;;;;;5223063;28;20285;-47
2022/08/14 06:34:18;;;;;;;5.13;4.72;;;37.60;38.10;;;;;;5231962;28;20194;-46
2022/08/14 06:36:49;;;;;;;12.48;5.35;;;37.70;37.90;;;;;;5232656;28;20186;-50
2022/08/14 06:39:19;;;;;;;9.93;4.40;;;37.00;38.10;;;;;;5219423;28;20582;-46
2022/08/14 06:41:50;;;;;;;6.68;5.60;;;36.60;39.30;;;;;;5226734;28;20186;-46
2022/08/14 06:44:21;;;;;;;7.50;5.30;;;37.00;38.80;;;;;;5226290;28;20182;-47
2022/08/14 06:46:52;;;;;;;6.35;5.30;;;37.80;37.70;;;;;;5224716;28;20209;-48
2022/08/14 06:49:26;;;;;;;5.65;5.18;;;38.60;35.90;;;;;;5241113;28;20653;-48
2022/08/14 06:51:57;;;;;;;6.50;5.88;;;38.50;36.00;;;;;;5224695;28;20231;-49
2022/08/14 06:54:27;;;;;;;6.38;5.65;;;38.10;36.30;;;;;;5226251;28;20281;-51
2022/08/14 06:56:58;;;;;;;5.80;5.30;;;37.40;36.90;;;;;;5225150;28;20194;-47
2022/08/14 06:59:28;;;;;;;5.38;4.97;;;36.50;37.90;;;;;;5221022;28;20186;-47
2022/08/14 07:07:40;;;;;;;6.75;6.20;;;37.70;36.80;;;;;;5226304;28;20246;-47
2022/08/14 07:10:10;;;;;;;5.63;5.13;;;37.90;35.80;;;;;;5225576;28;20182;-48
2022/08/14 07:12:41;;;;;;;5.90;5.18;;;38.00;36.30;;;;;;5221860;28;20181;-48
2022/08/14 07:15:15;;;;;;;4.93;4.50;;;38.60;35.10;;;;;;5221395;28;20202;-47
2022/08/14 07:17:47;;;;;;;5.70;5.20;;;39.40;34.40;;;;;;5219274;28;20730;-47
2022/08/14 07:20:21;;;;;;;6.57;4.78;;;39.50;33.30;;;;;;5230004;28;20194;-49
2022/08/14 07:22:52;;;;;;;5.30;4.90;;;38.90;32.90;;;;;;5229889;28;20253;-48
2022/08/14 07:25:24;;;;;;;6.03;5.53;;;38.10;35.00;;;;;;5228181;28;20202;-47
2022/08/14 07:27:55;;;;;;;7.30;5.13;;;37.80;34.90;;;;;;5230062;28;20229;-48
2022/08/14 07:30:28;;;;;;;4.57;4.28;;;37.80;35.10;;;;;;5228356;28;20179;-48
2022/08/14 07:32:59;;;;;;;4.90;4.40;;;37.30;35.90;;;;;;5228517;28;20710;-49
2022/08/14 07:35:31;;;;;;;4.53;4.22;;;37.40;35.90;;;;;;5228441;28;20285;-48
2022/08/14 07:38:02;;;;;;;6.10;4.80;;;38.00;35.30;;;;;;5219305;28;20190;-47
2022/08/14 07:40:33;;;;;;;5.38;4.95;;;38.80;34.00;;;;;;5224820;28;20276;-47
2022/08/14 07:43:04;;;;;;;4.82;4.43;;;39.60;33.20;;;;;;5229053;28;20240;-49
2022/08/14 07:45:35;;;;;;;6.22;4.28;;;39.10;33.60;;;;;;5238904;28;20213;-47
2022/08/14 07:48:06;;;;;;;5.20;4.75;;;38.60;33.80;;;;;;5223962;28;20224;-48
2022/08/14 07:50:38;;;;;;;5.30;4.80;;;37.80;34.40;;;;;;5228216;28;20182;-49
2022/08/14 07:53:09;;;;;;;6.00;5.40;;;37.90;35.20;;;;;;5237145;28;20186;-49
2022/08/14 07:55:41;;;;;;;7.40;5.55;;;38.80;32.80;;;;;;5223686;28;20221;-47
2022/08/14 07:58:12;;;;;;;5.50;4.97;;;38.30;33.30;;;;;;5228860;28;20198;-47
2022/08/14 08:00:46;;;;;;;5.25;4.85;;;38.30;34.00;;;;;;5226652;28;20194;-48
2022/08/14 08:03:17;;;;;;;5.32;5.03;;;38.60;34.10;;;;;;5205382;28;20197;-48
2022/08/14 08:05:48;;;;;;;4.90;4.60;;;38.50;33.60;;;;;;5236823;28;20222;-47
2022/08/14 08:08:19;;;;;;;4.55;4.25;;;38.20;33.80;;;;;;5227316;28;20226;-49
2022/08/14 08:10:55;;;;;;;5.97;4.35;;;38.20;34.30;;;;;;5232447;28;20185;-46
2022/08/14 08:13:26;;;;;;;5.60;5.05;;;39.10;33.60;;;;;;5238636;28;20243;-49
2022/08/14 08:15:57;;;;;;;4.78;4.47;;;38.80;32.40;;;;;;5227153;28;20204;-48
2022/08/14 08:18:28;;;;;;;4.72;4.32;;;38.50;33.70;;;;;;5226458;28;20198;-48
2022/08/14 08:20:58;;;;;;;5.10;4.65;;;38.20;33.30;;;;;;5226305;28;20206;-47
2022/08/14 08:23:32;;;;;;;5.70;5.30;;;36.90;34.70;;;;;;5236490;28;20650;-48
2022/08/14 08:26:02;;;;;;;5.93;4.97;;;36.50;35.60;;;;;;5225644;28;20262;-48
2022/08/14 08:28:34;;;;;;;5.17;4.77;;;36.20;36.00;;;;;;5224404;28;20608;-48
2022/08/14 08:31:05;;;;;;;5.53;4.93;;;36.10;36.50;;;;;;5223064;28;20655;-47
2022/08/14 08:33:37;;;;;;;6.83;5.00;;;35.40;37.40;;;;;;5218671;28;21518;-48
2022/08/14 08:36:12;;;;;;;7.53;4.87;;;35.10;38.30;;;;;;5228013;28;20246;-47
2022/08/14 08:38:44;;;;;;;11.50;5.13;;;35.20;38.20;;;;;;5228401;28;20197;-47
2022/08/14 08:41:15;;;;;;;5.30;4.90;;;35.90;36.90;;;;;;5223920;28;20274;-48
2022/08/14 08:43:46;;;;;;;7.03;5.40;;;36.00;37.20;;;;;;5207128;28;20290;-49
2022/08/14 08:46:20;;;;;;;7.93;5.40;;;35.80;37.30;;;;;;5218455;28;20222;-48
2022/08/14 08:48:56;;;;;;;5.10;4.60;;;35.40;37.90;;;;;;5221519;28;20689;-48
2022/08/14 08:51:28;;;;;;;6.03;5.53;;;35.10;38.60;;;;;;5226974;28;20182;-49
2022/08/14 08:54:04;;;;;;;11.43;6.27;;;34.80;38.80;;;;;;5224306;28;20189;-49
2022/08/14 08:56:49;;;;;;;5.33;4.93;;;34.00;40.10;;;;;;5228012;28;20210;-48
2022/08/14 08:59:25;;;;;;;4.90;4.50;;;33.20;40.90;;;;;;5229533;28;20194;-50
2022/08/14 09:01:59;;;;;;;4.80;4.40;;;32.70;42.10;;;;;;5226639;28;20178;-48
2022/08/14 09:04:43;;;;;;;5.27;4.87;;;32.00;42.90;;;;;;5226757;28;20202;-48
2022/08/14 09:07:13;;;;;;;6.53;4.70;;;31.40;44.10;;;;;;5230838;28;21003;-49
2022/08/14 09:09:50;;;;;;;4.50;4.27;;;31.10;44.90;;;;;;5225109;28;20513;-49
2022/08/14 09:12:21;;;;;;;4.23;4.03;;;30.80;45.10;;;;;;5227002;28;20244;-48
2022/08/14 09:14:52;;;;;;;5.27;4.23;;;30.50;45.60;;;;;;5226472;28;20994;-48
2022/08/14 09:17:23;;;;;;;5.10;4.67;;;29.90;46.90;;;;;;5239742;28;20433;-48
2022/08/14 09:19:55;;;;;;;5.23;4.83;;;29.90;47.30;;;;;;5227073;28;20501;-49
2022/08/14 09:22:27;;;;;;;5.70;4.63;;;30.00;47.20;;;;;;5232654;28;20301;-49
2022/08/14 09:24:58;;;;;;;5.20;4.70;;;30.00;47.10;;;;;;5223664;28;20456;-48
2022/08/14 09:27:30;;;;;;;14.30;5.07;;;30.20;47.60;;;;;;5230627;28;20556;-47
2022/08/14 09:30:01;;;;;;;5.70;5.20;;;30.20;46.90;;;;;;5226811;28;20521;-49
2022/08/14 09:32:45;;;;;;;5.17;4.67;;;30.20;47.40;;;;;;5235560;28;20512;-50
2022/08/14 09:35:23;;;;;;;4.67;4.37;;;30.00;47.10;;;;;;5222118;28;20205;-47
2022/08/14 09:38:24;;;;;;;5.47;4.63;;;30.00;46.60;;;;;;5226480;28;20443;-48
2022/08/14 09:41:23;;;;;;;12.90;3.90;;;30.20;47.30;;;;;;5199335;28;20447;-48
2022/08/14 09:44:05;;;;;;;15.10;4.90;;;30.30;46.40;;;;;;5224600;28;20434;-47
2022/08/14 09:46:36;;;;;;;6.33;4.40;;;30.40;46.30;;;;;;5220527;28;20464;-49
2022/08/14 09:49:07;;;;;;;3.53;3.40;;;30.70;46.00;;;;;;5238925;28;20433;-48
2022/08/14 09:51:41;;;;;;;3.57;3.37;;;31.00;45.60;;;;;;5222687;28;20189;-49
2022/08/14 09:54:12;;;;;;;6.10;3.60;;;31.30;45.00;;;;;;5219857;28;20234;-48
2022/08/14 09:56:45;;;;;;;3.97;3.67;;;31.00;43.80;;;;;;5224109;28;20563;-50
2022/08/14 09:59:21;;;;;;;5.50;4.03;;;30.90;44.30;;;;;;5220984;28;20186;-49
2022/08/14 10:01:52;;;;;;;12.20;3.30;;;31.00;43.70;;;;;;5235041;28;20963;-51
2022/08/14 10:04:27;;;;;;;12.20;3.77;;;30.90;43.50;;;;;;5223114;28;20448;-47
2022/08/14 10:07:00;;;;;;;6.87;3.70;;;30.40;43.70;;;;;;5225743;28;20498;-49
2022/08/14 10:09:30;;;;;;;4.10;3.23;;;30.20;44.30;;;;;;5223385;28;20437;-49
2022/08/14 10:12:02;;;;;;;7.83;2.83;;;30.20;44.20;;;;;;5221753;28;20449;-48
2022/08/14 10:14:33;;;;;;;2.93;2.83;;;30.40;44.10;;;;;;5217451;28;20201;-49
2022/08/14 10:17:06;;;;;;;3.87;3.57;;;30.50;43.70;;;;;;5219105;28;20906;-48
2022/08/14 10:19:47;;;;;;;4.93;2.97;;;30.50;43.70;;;;;;5224680;28;20433;-49
2022/08/14 10:22:24;;;;;;;4.30;4.07;;;30.40;44.00;;;;;;5225181;28;20429;-49
2022/08/14 10:24:55;;;;;;;3.17;3.07;;;30.40;43.30;;;;;;5220325;28;21048;-48
2022/08/14 10:27:26;;;;;;;3.60;3.40;;;30.30;43.60;;;;;;5223378;28;20475;-49
2022/08/14 10:29:59;;;;;;;6.00;3.10;;;30.30;43.70;;;;;;5225173;28;20511;-46
2022/08/14 10:32:41;;;;;;;11.03;3.70;;;30.30;43.70;;;;;;5218270;28;20467;-51
2022/08/14 10:35:14;;;;;;;3.53;3.00;;;30.40;43.80;;;;;;5225314;28;21000;-46
2022/08/14 10:37:48;;;;;;;3.40;3.10;;;30.60;43.00;;;;;;5224698;28;20441;-47
2022/08/14 10:40:31;;;;;;;4.00;3.60;;;30.60;42.60;;;;;;5237544;28;20433;-47
2022/08/14 10:43:02;;;;;;;2.70;2.50;;;30.50;42.00;;;;;;5226030;28;20472;-44
2022/08/14 10:45:33;;;;;;;3.77;3.30;;;30.60;42.70;;;;;;5222108;28;20531;-45
2022/08/14 10:48:13;;;;;;;2.67;2.57;;;30.70;41.80;;;;;;5225842;28;20475;-44
2022/08/14 10:50:48;;;;;;;3.53;3.33;;;30.90;42.10;;;;;;5229192;28;20933;-44
2022/08/14 10:53:33;;;;;;;18.13;2.47;;;30.90;41.80;;;;;;5227279;28;20515;-45
2022/08/14 10:56:09;;;;;;;5.90;3.20;;;30.90;42.30;;;;;;5227732;28;20547;-46
2022/08/14 10:58:40;;;;;;;15.70;3.57;;;30.90;42.40;;;;;;5224692;28;20428;-48
2022/08/14 11:01:11;;;;;;;11.63;3.47;;;30.80;42.50;;;;;;5223177;28;20519;-45
2022/08/14 11:03:42;;;;;;;3.20;3.10;;;30.70;42.00;;;;;;5226884;28;21261;-43
2022/08/14 11:06:18;;;;;;;3.60;3.40;;;30.40;42.20;;;;;;5228501;28;20473;-47
2022/08/14 11:08:50;;;;;;;7.00;2.83;;;30.30;42.40;;;;;;5238709;28;20198;-46
2022/08/14 11:11:26;;;;;;;4.30;3.70;;;30.30;42.00;;;;;;5221332;28;20465;-43
2022/08/14 11:13:59;;;;;;;3.50;3.20;;;30.40;42.20;;;;;;5224479;28;20514;-44
2022/08/14 11:16:34;;;;;;;3.57;3.30;;;30.30;42.40;;;;;;5229461;28;20489;-45
2022/08/14 11:19:10;;;;;;;4.93;3.87;;;30.50;42.40;;;;;;5233335;28;20754;-47
2022/08/14 11:21:43;;;;;;;4.97;3.33;;;30.50;42.40;;;;;;5214932;28;20464;-52
2022/08/14 11:24:16;;;;;;;3.83;3.53;;;30.60;42.60;;;;;;5222413;28;20468;-46
2022/08/14 11:26:49;;;;;;;9.80;3.37;;;30.60;43.00;;;;;;5225934;28;20453;-45
2022/08/14 11:29:21;;;;;;;8.87;3.70;;;30.60;42.60;;;;;;5218643;28;20441;-43
2022/08/14 11:31:54;;;;;;;3.57;3.33;;;30.50;43.10;;;;;;5220826;28;20456;-44
2022/08/14 11:34:24;;;;;;;3.60;3.40;;;30.50;42.80;;;;;;5226705;28;20801;-43
2022/08/14 11:36:55;;;;;;;4.13;3.73;;;30.60;42.30;;;;;;5219201;28;20502;-44
2022/08/14 11:39:26;;;;;;;4.07;3.50;;;30.40;42.20;;;;;;5224052;28;20537;-44
2022/08/14 11:41:57;;;;;;;3.13;2.90;;;30.30;41.80;;;;;;5223156;28;20541;-46
2022/08/14 11:44:27;;;;;;;7.20;3.23;;;30.20;41.80;;;;;;5220276;28;20289;-42
2022/08/14 11:46:58;;;;;;;3.47;3.27;;;30.10;41.00;;;;;;5225730;28;20215;-44
2022/08/14 11:49:30;;;;;;;4.40;4.10;;;30.00;41.20;;;;;;5225325;28;20186;-42
2022/08/14 11:52:01;;;;;;;9.03;3.00;;;30.10;40.90;;;;;;5235397;28;20444;-48
2022/08/14 11:54:32;;;;;;;5.57;3.57;;;30.20;40.10;;;;;;5211063;28;20450;-44
2022/08/14 11:57:04;;;;;;;3.80;3.60;;;30.30;39.10;;;;;;5222220;28;20276;-44
2022/08/14 11:59:35;;;;;;;2.90;2.70;;;30.30;40.60;;;;;;5223955;28;20425;-43
2022/08/14 12:02:14;;;;;;;6.37;3.57;;;30.40;41.60;;;;;;5225453;28;20447;-44
2022/08/14 12:04:52;;;;;;;3.77;3.50;;;30.40;41.40;;;;;;5223999;28;20229;-44
2022/08/14 12:07:23;;;;;;;5.73;3.73;;;30.40;39.50;;;;;;5223505;28;20472;-42
2022/08/14 12:09:56;;;;;;;28.97;4.43;;;30.50;41.40;;;;;;5224980;28;20440;-42
2022/08/14 12:12:31;;;;;;;4.37;3.97;;;30.40;41.20;;;;;;5229677;28;20512;-43
2022/08/14 12:15:02;;;;;;;6.93;3.77;;;30.40;41.60;;;;;;5224973;28;20453;-42
2022/08/14 12:17:51;;;;;;;4.30;4.00;;;30.40;41.20;;;;;;5233453;28;20432;-44
2022/08/14 12:20:31;;;;;;;4.13;3.53;;;30.40;41.40;;;;;;5229935;28;20435;-45
2022/08/14 12:23:05;;;;;;;3.83;3.43;;;30.40;41.40;;;;;;5232392;28;20440;-43
2022/08/14 12:25:36;;;;;;;4.40;4.10;;;30.40;41.70;;;;;;5225025;28;20453;-49
2022/08/14 12:28:11;;;;;;;5.30;3.27;;;30.30;41.50;;;;;;5233812;28;20470;-44
2022/08/14 12:30:43;;;;;;;5.90;3.87;;;30.60;41.90;;;;;;5230733;28;20428;-44
2022/08/14 12:33:31;;;;;;;3.30;3.10;;;30.70;41.30;;;;;;5227916;28;20429;-47
2022/08/14 12:36:06;;;;;;;3.83;3.53;;;30.90;41.00;;;;;;5224555;28;20460;-45
2022/08/14 12:38:40;;;;;;;3.90;3.50;;;31.20;40.90;;;;;;5221375;28;20445;-45
2022/08/14 12:41:14;;;;;;;2.90;2.80;;;31.40;40.40;;;;;;5223281;28;20194;-47
2022/08/14 12:43:52;;;;;;;3.60;3.40;;;31.70;40.00;;;;;;5235741;28;20582;-45
2022/08/14 12:46:32;;;;;;;5.97;3.83;;;31.80;39.60;;;;;;5221079;28;20453;-45
2022/08/14 12:49:08;;;;;;;5.43;3.37;;;31.70;39.30;;;;;;5223849;28;20229;-46
2022/08/14 12:51:39;;;;;;;3.70;3.40;;;31.50;39.20;;;;;;5226860;28;20182;-45
2022/08/14 12:54:18;;;;;;;3.57;3.27;;;31.20;39.30;;;;;;5225355;28;20526;-45
2022/08/14 12:56:48;;;;;;;4.00;3.70;;;31.30;39.80;;;;;;5231299;28;20185;-48
2022/08/14 12:59:29;;;;;;;3.70;3.40;;;31.50;39.70;;;;;;5222179;28;20421;-47
2022/08/14 13:02:00;;;;;;;4.13;3.83;;;31.50;39.30;;;;;;5230004;28;20227;-46
2022/08/14 13:07:08;;;;;;;4.33;2.80;;;31.30;38.80;;;;;;5108504;28;20480;-50
2022/08/14 13:09:39;;;;;;;5.37;3.63;;;31.40;39.00;;;;;;5115080;28;20186;-53
2022/08/14 13:12:11;;;;;;;5.00;3.30;;;31.50;38.40;;;;;;5122816;28;20192;-51
2022/08/14 13:14:48;;;;;;;3.60;3.40;;;31.60;38.60;;;;;;5119441;28;20261;-50
2022/08/14 13:17:20;;;;;;;4.57;4.27;;;31.50;38.70;;;;;;5120776;28;20185;-50
2022/08/14 13:19:54;;;;;;;5.60;3.43;;;31.50;39.00;;;;;;5114160;28;20187;-51
2022/08/14 13:22:26;;;;;;;6.00;3.77;;;31.50;38.60;;;;;;5111796;28;20508;-51
2022/08/14 13:24:58;;;;;;;4.17;3.80;;;31.60;38.70;;;;;;5120177;28;20199;-50
2022/08/14 13:27:32;;;;;;;3.50;3.20;;;31.40;38.70;;;;;;5109095;28;21008;-49
2022/08/14 13:30:09;;;;;;;3.90;3.60;;;31.20;39.10;;;;;;5133784;28;20453;-51
2022/08/14 13:32:43;;;;;;;3.87;3.57;;;31.10;39.10;;;;;;5148311;28;20525;-50
2022/08/14 13:35:16;;;;;;;6.73;3.27;;;31.10;37.40;;;;;;5109651;28;20546;-51